sensor_id;sensor_type;location;lat;lon;timestamp;temperature;humidity
36450;DHT22;22475;51.390;7.180;2023-06-05T00:01:07;18.10;80.50
36450;DHT22;22475;51.390;7.180;2023-06-05T00:03:34;18.10;80.50
36450;DHT22;22475;51.390;7.180;2023-06-05T00:06:02;18.10;80.40
36450;DHT22;22475;51.390;7.180;2023-06-05T00:08:29;18.10;80.50
36450;DHT22;22475;51.390;7.180;2023-06-05T00:10:56;18.10;80.50
36450;DHT22;22475;51.390;7.180;2023-06-05T00:13:22;18.10;80.60
36450;DHT22;22475;51.390;7.180;2023-06-05T00:15:49;18.10;80.60
36450;DHT22;22475;51.390;7.180;2023-06-05T00:18:18;18.00;80.70
36450;DHT22;22475;51.390;7.180;2023-06-05T00:20:45;18.00;80.70
36450;DHT22;22475;51.390;7.180;2023-06-05T00:23:13;18.10;80.70
36450;DHT22;22475;51.390;7.180;2023-06-05T00:25:40;18.10;80.80
36450;DHT22;22475;51.390;7.180;2023-06-05T00:28:07;18.10;80.90
36450;DHT22;22475;51.390;7.180;2023-06-05T00:30:33;18.00;80.90
36450;DHT22;22475;51.390;7.180;2023-06-05T00:33:01;18.00;80.80
36450;DHT22;22475;51.390;7.180;2023-06-05T00:35:29;18.00;80.80
36450;DHT22;22475;51.390;7.180;2023-06-05T00:37:56;18.00;80.80
36450;DHT22;22475;51.390;7.180;2023-06-05T00:40:22;18.00;80.90
36450;DHT22;22475;51.390;7.180;2023-06-05T00:42:49;18.00;80.90
36450;DHT22;22475;51.390;7.180;2023-06-05T00:45:16;18.00;80.90
36450;DHT22;22475;51.390;7.180;2023-06-05T00:47:43;18.00;80.90
36450;DHT22;22475;51.390;7.180;2023-06-05T00:50:10;18.10;81.00
36450;DHT22;22475;51.390;7.180;2023-06-05T00:52:39;18.00;81.00
36450;DHT22;22475;51.390;7.180;2023-06-05T00:55:08;18.00;81.00
36450;DHT22;22475;51.390;7.180;2023-06-05T00:57:34;18.00;81.10
36450;DHT22;22475;51.390;7.180;2023-06-05T01:00:01;18.00;81.10
36450;DHT22;22475;51.390;7.180;2023-06-05T01:02:32;18.00;81.10
36450;DHT22;22475;51.390;7.180;2023-06-05T01:04:59;18.00;81.20
36450;DHT22;22475;51.390;7.180;2023-06-05T01:07:29;18.00;81.20
36450;DHT22;22475;51.390;7.180;2023-06-05T01:09:59;18.00;81.20
36450;DHT22;22475;51.390;7.180;2023-06-05T01:12:30;18.00;81.20
36450;DHT22;22475;51.390;7.180;2023-06-05T01:15:01;18.00;81.10
36450;DHT22;22475;51.390;7.180;2023-06-05T01:17:31;18.00;81.10
36450;DHT22;22475;51.390;7.180;2023-06-05T01:19:59;18.00;81.10
36450;DHT22;22475;51.390;7.180;2023-06-05T01:22:35;18.00;81.10
36450;DHT22;22475;51.390;7.180;2023-06-05T01:25:05;18.00;81.20
36450;DHT22;22475;51.390;7.180;2023-06-05T01:27:37;18.00;81.30
36450;DHT22;22475;51.390;7.180;2023-06-05T01:30:11;18.00;81.40
36450;DHT22;22475;51.390;7.180;2023-06-05T01:32:43;18.00;81.50
36450;DHT22;22475;51.390;7.180;2023-06-05T01:35:13;18.00;81.60
36450;DHT22;22475;51.390;7.180;2023-06-05T01:37:43;18.00;81.70
36450;DHT22;22475;51.390;7.180;2023-06-05T01:40:16;18.00;81.70
36450;DHT22;22475;51.390;7.180;2023-06-05T01:42:43;17.90;81.70
36450;DHT22;22475;51.390;7.180;2023-06-05T01:45:14;18.00;81.80
36450;DHT22;22475;51.390;7.180;2023-06-05T01:47:42;18.00;81.80
36450;DHT22;22475;51.390;7.180;2023-06-05T01:50:10;18.00;81.70
36450;DHT22;22475;51.390;7.180;2023-06-05T01:52:38;17.90;81.60
36450;DHT22;22475;51.390;7.180;2023-06-05T01:55:07;18.00;81.60
36450;DHT22;22475;51.390;7.180;2023-06-05T01:57:42;18.00;81.60
36450;DHT22;22475;51.390;7.180;2023-06-05T02:00:09;18.00;81.60
36450;DHT22;22475;51.390;7.180;2023-06-05T02:02:38;17.90;81.50
36450;DHT22;22475;51.390;7.180;2023-06-05T02:05:07;18.00;81.60
36450;DHT22;22475;51.390;7.180;2023-06-05T02:07:36;17.90;81.70
36450;DHT22;22475;51.390;7.180;2023-06-05T02:10:04;17.90;81.70
36450;DHT22;22475;51.390;7.180;2023-06-05T02:12:31;18.00;81.90
36450;DHT22;22475;51.390;7.180;2023-06-05T02:14:59;17.90;81.90
36450;DHT22;22475;51.390;7.180;2023-06-05T02:17:26;17.90;82.00
36450;DHT22;22475;51.390;7.180;2023-06-05T02:19:53;17.90;82.00
36450;DHT22;22475;51.390;7.180;2023-06-05T02:22:19;17.90;82.00
36450;DHT22;22475;51.390;7.180;2023-06-05T02:24:48;17.90;82.10
36450;DHT22;22475;51.390;7.180;2023-06-05T02:27:17;17.90;82.10
36450;DHT22;22475;51.390;7.180;2023-06-05T02:29:44;17.90;82.20
36450;DHT22;22475;51.390;7.180;2023-06-05T02:32:13;17.90;82.20
36450;DHT22;22475;51.390;7.180;2023-06-05T02:34:39;17.90;82.20
36450;DHT22;22475;51.390;7.180;2023-06-05T02:37:06;17.90;82.20
36450;DHT22;22475;51.390;7.180;2023-06-05T02:39:33;17.90;82.20
36450;DHT22;22475;51.390;7.180;2023-06-05T02:42:00;17.90;82.30
36450;DHT22;22475;51.390;7.180;2023-06-05T02:44:27;17.90;82.40
36450;DHT22;22475;51.390;7.180;2023-06-05T02:46:54;17.90;82.50
36450;DHT22;22475;51.390;7.180;2023-06-05T02:49:22;17.90;82.50
36450;DHT22;22475;51.390;7.180;2023-06-05T02:51:49;17.90;82.60
36450;DHT22;22475;51.390;7.180;2023-06-05T02:54:16;17.90;82.50
36450;DHT22;22475;51.390;7.180;2023-06-05T02:56:43;17.90;82.60
36450;DHT22;22475;51.390;7.180;2023-06-05T02:59:09;17.90;82.60
36450;DHT22;22475;51.390;7.180;2023-06-05T03:01:36;17.90;82.70
36450;DHT22;22475;51.390;7.180;2023-06-05T03:04:08;17.90;82.60
36450;DHT22;22475;51.390;7.180;2023-06-05T03:06:37;17.90;82.60
36450;DHT22;22475;51.390;7.180;2023-06-05T03:09:04;17.90;82.60
36450;DHT22;22475;51.390;7.180;2023-06-05T03:11:32;17.90;82.50
36450;DHT22;22475;51.390;7.180;2023-06-05T03:13:58;17.90;82.50
36450;DHT22;22475;51.390;7.180;2023-06-05T03:16:25;17.80;82.50
36450;DHT22;22475;51.390;7.180;2023-06-05T03:18:58;17.80;82.50
36450;DHT22;22475;51.390;7.180;2023-06-05T03:21:24;17.80;82.50
36450;DHT22;22475;51.390;7.180;2023-06-05T03:23:52;17.90;82.60
36450;DHT22;22475;51.390;7.180;2023-06-05T03:26:20;17.80;82.60
36450;DHT22;22475;51.390;7.180;2023-06-05T03:28:47;17.90;82.60
36450;DHT22;22475;51.390;7.180;2023-06-05T03:31:14;17.90;82.50
36450;DHT22;22475;51.390;7.180;2023-06-05T03:33:41;17.80;82.50
36450;DHT22;22475;51.390;7.180;2023-06-05T03:36:08;17.90;82.70
36450;DHT22;22475;51.390;7.180;2023-06-05T03:38:35;17.80;82.60
36450;DHT22;22475;51.390;7.180;2023-06-05T03:41:03;17.80;82.60
36450;DHT22;22475;51.390;7.180;2023-06-05T03:43:29;17.80;82.60
36450;DHT22;22475;51.390;7.180;2023-06-05T03:45:56;17.80;82.60
36450;DHT22;22475;51.390;7.180;2023-06-05T03:48:24;17.80;82.60
36450;DHT22;22475;51.390;7.180;2023-06-05T03:50:50;17.80;82.60
36450;DHT22;22475;51.390;7.180;2023-06-05T03:53:19;17.80;82.60
36450;DHT22;22475;51.390;7.180;2023-06-05T03:55:45;17.80;82.60
36450;DHT22;22475;51.390;7.180;2023-06-05T03:58:15;17.80;82.60
36450;DHT22;22475;51.390;7.180;2023-06-05T04:00:43;17.80;82.50
36450;DHT22;22475;51.390;7.180;2023-06-05T04:03:11;17.80;82.50
36450;DHT22;22475;51.390;7.180;2023-06-05T04:05:39;17.80;82.50
36450;DHT22;22475;51.390;7.180;2023-06-05T04:08:06;17.80;82.60
36450;DHT22;22475;51.390;7.180;2023-06-05T04:10:33;17.80;82.60
36450;DHT22;22475;51.390;7.180;2023-06-05T04:13:00;17.80;82.60
36450;DHT22;22475;51.390;7.180;2023-06-05T04:15:28;17.80;82.60
36450;DHT22;22475;51.390;7.180;2023-06-05T04:17:55;17.80;82.70
36450;DHT22;22475;51.390;7.180;2023-06-05T04:20:22;17.80;82.70
36450;DHT22;22475;51.390;7.180;2023-06-05T04:22:49;17.80;82.80
36450;DHT22;22475;51.390;7.180;2023-06-05T04:25:16;17.80;82.80
36450;DHT22;22475;51.390;7.180;2023-06-05T04:27:45;17.70;82.80
36450;DHT22;22475;51.390;7.180;2023-06-05T04:30:13;17.70;82.90
36450;DHT22;22475;51.390;7.180;2023-06-05T04:32:41;17.70;82.90
36450;DHT22;22475;51.390;7.180;2023-06-05T04:35:09;17.70;82.90
36450;DHT22;22475;51.390;7.180;2023-06-05T04:37:37;17.70;82.90
36450;DHT22;22475;51.390;7.180;2023-06-05T04:40:05;17.70;82.90
36450;DHT22;22475;51.390;7.180;2023-06-05T04:42:35;17.70;83.00
36450;DHT22;22475;51.390;7.180;2023-06-05T04:45:04;17.70;83.10
36450;DHT22;22475;51.390;7.180;2023-06-05T04:47:32;17.70;83.20
36450;DHT22;22475;51.390;7.180;2023-06-05T04:50:01;17.70;83.20
36450;DHT22;22475;51.390;7.180;2023-06-05T04:52:30;17.70;83.30
36450;DHT22;22475;51.390;7.180;2023-06-05T04:54:56;17.70;83.40
36450;DHT22;22475;51.390;7.180;2023-06-05T04:57:25;17.70;83.40
36450;DHT22;22475;51.390;7.180;2023-06-05T04:59:52;17.70;83.40
36450;DHT22;22475;51.390;7.180;2023-06-05T05:02:19;17.70;83.40
36450;DHT22;22475;51.390;7.180;2023-06-05T05:04:46;17.70;83.30
36450;DHT22;22475;51.390;7.180;2023-06-05T05:07:15;17.70;83.30
36450;DHT22;22475;51.390;7.180;2023-06-05T05:09:42;17.70;83.30
36450;DHT22;22475;51.390;7.180;2023-06-05T05:12:09;17.70;83.20
36450;DHT22;22475;51.390;7.180;2023-06-05T05:14:36;17.70;83.20
36450;DHT22;22475;51.390;7.180;2023-06-05T05:17:04;17.70;83.10
36450;DHT22;22475;51.390;7.180;2023-06-05T05:19:30;17.70;83.10
36450;DHT22;22475;51.390;7.180;2023-06-05T05:21:57;17.70;83.10
36450;DHT22;22475;51.390;7.180;2023-06-05T05:24:25;17.70;83.20
36450;DHT22;22475;51.390;7.180;2023-06-05T05:26:52;17.60;83.10
36450;DHT22;22475;51.390;7.180;2023-06-05T05:29:19;17.70;83.20
36450;DHT22;22475;51.390;7.180;2023-06-05T05:31:45;17.70;83.20
36450;DHT22;22475;51.390;7.180;2023-06-05T05:34:12;17.60;83.20
36450;DHT22;22475;51.390;7.180;2023-06-05T05:36:39;17.70;83.40
36450;DHT22;22475;51.390;7.180;2023-06-05T05:39:06;17.70;83.50
36450;DHT22;22475;51.390;7.180;2023-06-05T05:41:34;17.70;83.50
36450;DHT22;22475;51.390;7.180;2023-06-05T05:44:01;17.70;83.50
36450;DHT22;22475;51.390;7.180;2023-06-05T05:46:28;17.70;83.40
36450;DHT22;22475;51.390;7.180;2023-06-05T05:48:55;17.70;83.40
36450;DHT22;22475;51.390;7.180;2023-06-05T05:51:21;17.70;83.30
36450;DHT22;22475;51.390;7.180;2023-06-05T05:53:49;17.70;83.20
36450;DHT22;22475;51.390;7.180;2023-06-05T05:56:15;17.70;83.10
36450;DHT22;22475;51.390;7.180;2023-06-05T05:58:44;17.70;82.90
36450;DHT22;22475;51.390;7.180;2023-06-05T06:01:10;17.70;83.00
36450;DHT22;22475;51.390;7.180;2023-06-05T06:03:38;17.70;83.10
36450;DHT22;22475;51.390;7.180;2023-06-05T06:06:05;17.70;83.20
36450;DHT22;22475;51.390;7.180;2023-06-05T06:08:33;17.70;83.40
36450;DHT22;22475;51.390;7.180;2023-06-05T06:11:00;17.70;83.60
36450;DHT22;22475;51.390;7.180;2023-06-05T06:13:29;17.70;83.60
36450;DHT22;22475;51.390;7.180;2023-06-05T06:15:57;17.80;83.60
36450;DHT22;22475;51.390;7.180;2023-06-05T06:18:24;17.80;83.70
36450;DHT22;22475;51.390;7.180;2023-06-05T06:20:51;17.70;83.50
36450;DHT22;22475;51.390;7.180;2023-06-05T06:23:17;17.80;83.50
36450;DHT22;22475;51.390;7.180;2023-06-05T06:25:44;17.80;83.60
36450;DHT22;22475;51.390;7.180;2023-06-05T06:28:11;17.80;83.70
36450;DHT22;22475;51.390;7.180;2023-06-05T06:30:38;17.80;83.80
36450;DHT22;22475;51.390;7.180;2023-06-05T06:33:06;17.80;83.90
36450;DHT22;22475;51.390;7.180;2023-06-05T06:35:33;17.80;83.70
36450;DHT22;22475;51.390;7.180;2023-06-05T06:38:00;17.80;83.50
36450;DHT22;22475;51.390;7.180;2023-06-05T06:40:27;17.80;83.50
36450;DHT22;22475;51.390;7.180;2023-06-05T06:42:54;17.80;83.30
36450;DHT22;22475;51.390;7.180;2023-06-05T06:45:21;17.80;83.20
36450;DHT22;22475;51.390;7.180;2023-06-05T06:47:48;17.80;83.20
36450;DHT22;22475;51.390;7.180;2023-06-05T06:50:16;17.80;83.20
36450;DHT22;22475;51.390;7.180;2023-06-05T06:52:43;17.80;83.20
36450;DHT22;22475;51.390;7.180;2023-06-05T06:55:10;17.80;83.20
36450;DHT22;22475;51.390;7.180;2023-06-05T06:57:37;17.80;83.20
36450;DHT22;22475;51.390;7.180;2023-06-05T07:00:05;17.80;83.20
36450;DHT22;22475;51.390;7.180;2023-06-05T07:02:36;17.80;83.40
36450;DHT22;22475;51.390;7.180;2023-06-05T07:05:04;17.80;83.50
36450;DHT22;22475;51.390;7.180;2023-06-05T07:07:32;17.80;83.70
36450;DHT22;22475;51.390;7.180;2023-06-05T07:09:59;17.80;83.80
36450;DHT22;22475;51.390;7.180;2023-06-05T07:12:26;17.80;83.80
36450;DHT22;22475;51.390;7.180;2023-06-05T07:14:53;17.80;83.70
36450;DHT22;22475;51.390;7.180;2023-06-05T07:17:20;17.80;83.80
36450;DHT22;22475;51.390;7.180;2023-06-05T07:19:49;17.80;83.90
36450;DHT22;22475;51.390;7.180;2023-06-05T07:22:16;17.90;83.80
36450;DHT22;22475;51.390;7.180;2023-06-05T07:24:44;17.80;83.60
36450;DHT22;22475;51.390;7.180;2023-06-05T07:27:11;17.90;83.50
36450;DHT22;22475;51.390;7.180;2023-06-05T07:29:38;17.90;83.40
36450;DHT22;22475;51.390;7.180;2023-06-05T07:32:05;17.90;83.40
36450;DHT22;22475;51.390;7.180;2023-06-05T07:34:33;17.90;83.30
36450;DHT22;22475;51.390;7.180;2023-06-05T07:37:00;17.90;83.40
36450;DHT22;22475;51.390;7.180;2023-06-05T07:39:27;17.90;83.30
36450;DHT22;22475;51.390;7.180;2023-06-05T07:41:56;17.90;83.30
36450;DHT22;22475;51.390;7.180;2023-06-05T07:44:23;17.90;83.30
36450;DHT22;22475;51.390;7.180;2023-06-05T07:46:50;17.90;83.40
36450;DHT22;22475;51.390;7.180;2023-06-05T07:49:17;17.90;83.50
36450;DHT22;22475;51.390;7.180;2023-06-05T07:51:44;17.90;83.50
36450;DHT22;22475;51.390;7.180;2023-06-05T07:54:13;17.90;83.40
36450;DHT22;22475;51.390;7.180;2023-06-05T07:56:41;17.90;83.50
36450;DHT22;22475;51.390;7.180;2023-06-05T07:59:09;18.00;83.70
36450;DHT22;22475;51.390;7.180;2023-06-05T08:01:39;17.90;83.60
36450;DHT22;22475;51.390;7.180;2023-06-05T08:04:06;17.90;83.40
36450;DHT22;22475;51.390;7.180;2023-06-05T08:06:33;17.90;83.40
36450;DHT22;22475;51.390;7.180;2023-06-05T08:09:03;17.90;83.30
36450;DHT22;22475;51.390;7.180;2023-06-05T08:11:31;17.90;83.30
36450;DHT22;22475;51.390;7.180;2023-06-05T08:13:58;17.90;83.30
36450;DHT22;22475;51.390;7.180;2023-06-05T08:16:26;18.00;83.40
36450;DHT22;22475;51.390;7.180;2023-06-05T08:18:53;18.00;83.50
36450;DHT22;22475;51.390;7.180;2023-06-05T08:21:19;17.90;83.50
36450;DHT22;22475;51.390;7.180;2023-06-05T08:23:46;17.90;83.50
36450;DHT22;22475;51.390;7.180;2023-06-05T08:26:13;18.00;83.60
36450;DHT22;22475;51.390;7.180;2023-06-05T08:28:40;18.00;83.50
36450;DHT22;22475;51.390;7.180;2023-06-05T08:31:07;18.00;83.60
36450;DHT22;22475;51.390;7.180;2023-06-05T08:33:37;18.00;83.60
36450;DHT22;22475;51.390;7.180;2023-06-05T08:36:04;18.00;83.60
36450;DHT22;22475;51.390;7.180;2023-06-05T08:38:33;17.90;83.40
36450;DHT22;22475;51.390;7.180;2023-06-05T08:41:01;18.00;83.50
36450;DHT22;22475;51.390;7.180;2023-06-05T08:43:28;18.00;83.60
36450;DHT22;22475;51.390;7.180;2023-06-05T08:45:56;18.00;83.60
36450;DHT22;22475;51.390;7.180;2023-06-05T08:48:25;18.00;83.30
36450;DHT22;22475;51.390;7.180;2023-06-05T08:50:53;18.00;83.20
36450;DHT22;22475;51.390;7.180;2023-06-05T08:53:21;18.00;83.30
36450;DHT22;22475;51.390;7.180;2023-06-05T08:55:53;18.00;83.30
36450;DHT22;22475;51.390;7.180;2023-06-05T08:58:21;18.00;83.50
36450;DHT22;22475;51.390;7.180;2023-06-05T09:00:49;18.00;83.60
36450;DHT22;22475;51.390;7.180;2023-06-05T09:03:16;18.00;83.60
36450;DHT22;22475;51.390;7.180;2023-06-05T09:05:45;18.00;83.70
36450;DHT22;22475;51.390;7.180;2023-06-05T09:08:14;18.00;83.80
36450;DHT22;22475;51.390;7.180;2023-06-05T09:10:42;18.00;83.80
36450;DHT22;22475;51.390;7.180;2023-06-05T09:13:09;18.00;83.90
36450;DHT22;22475;51.390;7.180;2023-06-05T09:15:36;18.00;83.90
36450;DHT22;22475;51.390;7.180;2023-06-05T09:18:08;18.00;84.00
36450;DHT22;22475;51.390;7.180;2023-06-05T09:20:36;18.00;84.10
36450;DHT22;22475;51.390;7.180;2023-06-05T09:23:05;18.00;84.10
36450;DHT22;22475;51.390;7.180;2023-06-05T09:25:48;18.00;84.10
36450;DHT22;22475;51.390;7.180;2023-06-05T09:28:16;18.00;84.10
36450;DHT22;22475;51.390;7.180;2023-06-05T09:30:53;18.00;84.10
36450;DHT22;22475;51.390;7.180;2023-06-05T09:33:21;18.00;84.10
36450;DHT22;22475;51.390;7.180;2023-06-05T09:36:01;18.00;84.10
36450;DHT22;22475;51.390;7.180;2023-06-05T09:38:29;18.00;84.10
36450;DHT22;22475;51.390;7.180;2023-06-05T09:41:05;18.10;84.10
36450;DHT22;22475;51.390;7.180;2023-06-05T09:43:32;18.10;84.10
36450;DHT22;22475;51.390;7.180;2023-06-05T09:46:06;18.00;84.10
36450;DHT22;22475;51.390;7.180;2023-06-05T09:48:33;18.00;84.10
36450;DHT22;22475;51.390;7.180;2023-06-05T09:51:08;18.10;84.10
36450;DHT22;22475;51.390;7.180;2023-06-05T09:53:41;18.10;84.10
36450;DHT22;22475;51.390;7.180;2023-06-05T09:56:09;18.00;84.10
36450;DHT22;22475;51.390;7.180;2023-06-05T09:58:37;18.10;84.10
36450;DHT22;22475;51.390;7.180;2023-06-05T10:01:07;18.10;84.10
36450;DHT22;22475;51.390;7.180;2023-06-05T10:03:36;18.00;84.10
36450;DHT22;22475;51.390;7.180;2023-06-05T10:06:05;18.00;84.10
36450;DHT22;22475;51.390;7.180;2023-06-05T10:08:33;18.10;84.10
36450;DHT22;22475;51.390;7.180;2023-06-05T10:11:02;18.10;84.10
36450;DHT22;22475;51.390;7.180;2023-06-05T10:13:31;18.10;84.10
36450;DHT22;22475;51.390;7.180;2023-06-05T10:15:59;18.00;84.10
36450;DHT22;22475;51.390;7.180;2023-06-05T10:18:26;18.00;84.10
36450;DHT22;22475;51.390;7.180;2023-06-05T10:20:53;18.00;84.10
36450;DHT22;22475;51.390;7.180;2023-06-05T10:23:21;18.10;84.10
36450;DHT22;22475;51.390;7.180;2023-06-05T10:25:48;18.10;84.10
36450;DHT22;22475;51.390;7.180;2023-06-05T10:28:33;18.10;84.20
36450;DHT22;22475;51.390;7.180;2023-06-05T10:31:18;18.00;84.30
36450;DHT22;22475;51.390;7.180;2023-06-05T10:34:02;18.10;84.30
36450;DHT22;22475;51.390;7.180;2023-06-05T10:36:42;18.10;84.30
36450;DHT22;22475;51.390;7.180;2023-06-05T10:39:13;18.10;84.20
36450;DHT22;22475;51.390;7.180;2023-06-05T10:41:41;18.00;84.10
36450;DHT22;22475;51.390;7.180;2023-06-05T10:44:09;18.10;84.30
36450;DHT22;22475;51.390;7.180;2023-06-05T10:46:39;18.10;84.30
36450;DHT22;22475;51.390;7.180;2023-06-05T10:49:10;18.10;84.30
36450;DHT22;22475;51.390;7.180;2023-06-05T10:51:39;18.10;84.40
36450;DHT22;22475;51.390;7.180;2023-06-05T10:54:06;18.10;84.40
36450;DHT22;22475;51.390;7.180;2023-06-05T10:56:56;18.10;84.40
36450;DHT22;22475;51.390;7.180;2023-06-05T10:59:27;18.10;84.50
36450;DHT22;22475;51.390;7.180;2023-06-05T11:02:24;18.10;84.40
36450;DHT22;22475;51.390;7.180;2023-06-05T11:05:05;18.10;84.40
36450;DHT22;22475;51.390;7.180;2023-06-05T11:07:33;18.10;84.20
36450;DHT22;22475;51.390;7.180;2023-06-05T11:10:08;18.10;84.10
36450;DHT22;22475;51.390;7.180;2023-06-05T11:12:54;18.10;84.30
36450;DHT22;22475;51.390;7.180;2023-06-05T11:15:41;18.10;84.40
36450;DHT22;22475;51.390;7.180;2023-06-05T11:18:28;18.10;84.40
36450;DHT22;22475;51.390;7.180;2023-06-05T11:20:56;18.10;84.30
36450;DHT22;22475;51.390;7.180;2023-06-05T11:23:23;18.20;84.30
36450;DHT22;22475;51.390;7.180;2023-06-05T11:25:54;18.20;84.40
36450;DHT22;22475;51.390;7.180;2023-06-05T11:28:39;18.20;84.40
36450;DHT22;22475;51.390;7.180;2023-06-05T11:31:08;18.20;84.40
36450;DHT22;22475;51.390;7.180;2023-06-05T11:33:35;18.20;84.20
36450;DHT22;22475;51.390;7.180;2023-06-05T11:36:04;18.20;84.30
36450;DHT22;22475;51.390;7.180;2023-06-05T11:38:32;18.20;84.20
36450;DHT22;22475;51.390;7.180;2023-06-05T11:40:59;18.10;84.10
36450;DHT22;22475;51.390;7.180;2023-06-05T11:43:26;18.20;84.20
36450;DHT22;22475;51.390;7.180;2023-06-05T11:45:54;18.20;84.20
36450;DHT22;22475;51.390;7.180;2023-06-05T11:48:23;18.20;84.40
36450;DHT22;22475;51.390;7.180;2023-06-05T11:50:56;18.20;84.30
36450;DHT22;22475;51.390;7.180;2023-06-05T11:53:23;18.20;84.20
36450;DHT22;22475;51.390;7.180;2023-06-05T11:55:51;18.20;84.20
36450;DHT22;22475;51.390;7.180;2023-06-05T11:58:31;18.20;84.20
36450;DHT22;22475;51.390;7.180;2023-06-05T12:01:05;18.20;84.20
36450;DHT22;22475;51.390;7.180;2023-06-05T12:03:34;18.20;84.10
36450;DHT22;22475;51.390;7.180;2023-06-05T12:06:01;18.20;84.10
36450;DHT22;22475;51.390;7.180;2023-06-05T12:08:29;18.20;84.10
36450;DHT22;22475;51.390;7.180;2023-06-05T12:10:57;18.20;84.10
36450;DHT22;22475;51.390;7.180;2023-06-05T12:13:45;18.20;84.10
36450;DHT22;22475;51.390;7.180;2023-06-05T12:16:13;18.20;84.20
36450;DHT22;22475;51.390;7.180;2023-06-05T12:18:42;18.20;84.20
36450;DHT22;22475;51.390;7.180;2023-06-05T12:21:19;18.20;84.20
36450;DHT22;22475;51.390;7.180;2023-06-05T12:23:47;18.20;84.20
36450;DHT22;22475;51.390;7.180;2023-06-05T12:26:14;18.20;84.20
36450;DHT22;22475;51.390;7.180;2023-06-05T12:28:42;18.20;84.20
36450;DHT22;22475;51.390;7.180;2023-06-05T12:31:09;18.20;84.20
36450;DHT22;22475;51.390;7.180;2023-06-05T12:33:48;18.20;84.20
36450;DHT22;22475;51.390;7.180;2023-06-05T12:36:15;18.20;84.20
36450;DHT22;22475;51.390;7.180;2023-06-05T12:38:43;18.20;84.20
36450;DHT22;22475;51.390;7.180;2023-06-05T12:41:10;18.20;84.20
36450;DHT22;22475;51.390;7.180;2023-06-05T12:43:37;18.20;84.20
36450;DHT22;22475;51.390;7.180;2023-06-05T12:46:05;18.30;84.30
36450;DHT22;22475;51.390;7.180;2023-06-05T12:48:33;18.20;84.20
36450;DHT22;22475;51.390;7.180;2023-06-05T12:51:02;18.20;84.20
36450;DHT22;22475;51.390;7.180;2023-06-05T12:53:29;18.20;84.20
36450;DHT22;22475;51.390;7.180;2023-06-05T12:55:56;18.20;84.20
36450;DHT22;22475;51.390;7.180;2023-06-05T12:58:22;18.20;84.20
36450;DHT22;22475;51.390;7.180;2023-06-05T13:00:49;18.20;84.00
36450;DHT22;22475;51.390;7.180;2023-06-05T13:03:17;18.20;84.00
36450;DHT22;22475;51.390;7.180;2023-06-05T13:05:44;18.20;83.90
36450;DHT22;22475;51.390;7.180;2023-06-05T13:08:12;18.20;84.60
36450;DHT22;22475;51.390;7.180;2023-06-05T13:10:39;18.20;83.90
36450;DHT22;22475;51.390;7.180;2023-06-05T13:13:06;18.20;83.90
36450;DHT22;22475;51.390;7.180;2023-06-05T13:15:32;18.20;84.00
36450;DHT22;22475;51.390;7.180;2023-06-05T13:17:59;18.20;84.20
36450;DHT22;22475;51.390;7.180;2023-06-05T13:20:26;18.30;84.30
36450;DHT22;22475;51.390;7.180;2023-06-05T13:22:53;18.30;84.30
36450;DHT22;22475;51.390;7.180;2023-06-05T13:25:21;18.20;84.30
36450;DHT22;22475;51.390;7.180;2023-06-05T13:27:48;18.30;85.00
36450;DHT22;22475;51.390;7.180;2023-06-05T13:30:15;18.30;84.30
36450;DHT22;22475;51.390;7.180;2023-06-05T13:32:42;18.30;84.20
36450;DHT22;22475;51.390;7.180;2023-06-05T13:35:10;18.30;84.00
36450;DHT22;22475;51.390;7.180;2023-06-05T13:37:37;18.30;84.00
36450;DHT22;22475;51.390;7.180;2023-06-05T13:40:05;18.30;84.00
36450;DHT22;22475;51.390;7.180;2023-06-05T13:42:37;18.30;83.90
36450;DHT22;22475;51.390;7.180;2023-06-05T13:45:04;18.30;84.00
36450;DHT22;22475;51.390;7.180;2023-06-05T13:47:31;18.30;84.00
36450;DHT22;22475;51.390;7.180;2023-06-05T13:49:58;18.30;83.90
36450;DHT22;22475;51.390;7.180;2023-06-05T13:52:25;18.30;83.80
36450;DHT22;22475;51.390;7.180;2023-06-05T13:54:52;18.30;83.70
36450;DHT22;22475;51.390;7.180;2023-06-05T13:57:18;18.30;83.70
36450;DHT22;22475;51.390;7.180;2023-06-05T13:59:46;18.30;83.70
36450;DHT22;22475;51.390;7.180;2023-06-05T14:02:14;18.30;83.70
36450;DHT22;22475;51.390;7.180;2023-06-05T14:04:41;18.30;83.70
36450;DHT22;22475;51.390;7.180;2023-06-05T14:07:08;18.30;83.80
36450;DHT22;22475;51.390;7.180;2023-06-05T14:09:35;18.30;83.70
36450;DHT22;22475;51.390;7.180;2023-06-05T14:12:02;18.30;83.80
36450;DHT22;22475;51.390;7.180;2023-06-05T14:14:29;18.30;83.90
36450;DHT22;22475;51.390;7.180;2023-06-05T14:16:57;18.30;84.00
36450;DHT22;22475;51.390;7.180;2023-06-05T14:19:24;18.30;84.10
36450;DHT22;22475;51.390;7.180;2023-06-05T14:21:51;18.40;84.20
36450;DHT22;22475;51.390;7.180;2023-06-05T14:24:17;18.40;84.20
36450;DHT22;22475;51.390;7.180;2023-06-05T14:26:45;18.40;84.20
36450;DHT22;22475;51.390;7.180;2023-06-05T14:29:12;18.40;84.30
36450;DHT22;22475;51.390;7.180;2023-06-05T14:31:38;18.40;84.30
36450;DHT22;22475;51.390;7.180;2023-06-05T14:34:06;18.40;84.30
36450;DHT22;22475;51.390;7.180;2023-06-05T14:36:35;18.40;84.30
36450;DHT22;22475;51.390;7.180;2023-06-05T14:39:02;18.40;84.40
36450;DHT22;22475;51.390;7.180;2023-06-05T14:41:29;18.40;84.30
36450;DHT22;22475;51.390;7.180;2023-06-05T14:43:56;18.40;84.30
36450;DHT22;22475;51.390;7.180;2023-06-05T14:46:23;18.40;84.30
36450;DHT22;22475;51.390;7.180;2023-06-05T14:48:50;18.40;84.30
36450;DHT22;22475;51.390;7.180;2023-06-05T14:51:18;18.40;84.10
36450;DHT22;22475;51.390;7.180;2023-06-05T14:53:45;18.40;84.10
36450;DHT22;22475;51.390;7.180;2023-06-05T14:56:11;18.40;84.20
36450;DHT22;22475;51.390;7.180;2023-06-05T14:58:38;18.40;84.30
36450;DHT22;22475;51.390;7.180;2023-06-05T15:01:05;18.40;84.30
36450;DHT22;22475;51.390;7.180;2023-06-05T15:03:31;18.40;84.30
36450;DHT22;22475;51.390;7.180;2023-06-05T15:05:58;18.40;84.30
36450;DHT22;22475;51.390;7.180;2023-06-05T15:08:26;18.40;84.30
36450;DHT22;22475;51.390;7.180;2023-06-05T15:10:53;18.40;84.30
36450;DHT22;22475;51.390;7.180;2023-06-05T15:13:20;18.50;84.40
36450;DHT22;22475;51.390;7.180;2023-06-05T15:15:47;18.50;84.40
36450;DHT22;22475;51.390;7.180;2023-06-05T15:18:14;18.50;84.40
36450;DHT22;22475;51.390;7.180;2023-06-05T15:20:41;18.40;84.30
36450;DHT22;22475;51.390;7.180;2023-06-05T15:23:07;18.40;84.30
36450;DHT22;22475;51.390;7.180;2023-06-05T15:25:36;18.50;84.40
36450;DHT22;22475;51.390;7.180;2023-06-05T15:28:02;18.50;84.30
36450;DHT22;22475;51.390;7.180;2023-06-05T15:30:29;18.50;84.20
36450;DHT22;22475;51.390;7.180;2023-06-05T15:32:56;18.50;84.20
36450;DHT22;22475;51.390;7.180;2023-06-05T15:35:23;18.50;84.30
36450;DHT22;22475;51.390;7.180;2023-06-05T15:37:51;18.50;84.30